Time;durP1;ratioP1;P1;durP2;ratioP2;P2;SDS_P1;SDS_P2;PMS_P1;PMS_P2;Temp;Humidity;BMP_temperature;BMP_pressure;BME280_temperature;BME280_humidity;BME280_pressure;Samples;Min_cycle;Max_cycle;Signal;HPM_P1;HPM_P2
2023/01/29 10:07:15;;;;;;;11.27;8.00;;;;;;;-0.94;74.70;97603.75;2088191;28;20578;-60
2023/01/29 10:13:14;;;;;;;43.50;22.10;;;;;;;-0.60;74.34;97604.25;2088942;28;20562;-62
2023/01/29 10:17:29;;;;;;;12.05;7.20;;;;;;;-0.62;73.72;97611.06;2091112;28;20594;-62
2023/01/29 10:21:35;;;;;;;14.18;10.70;;;;;;;-0.38;73.56;97614.81;2088330;28;20566;-60
2023/01/29 10:23:11;;;;;;;13.75;10.45;;;;;;;0.65;70.58;97618.66;2085408;28;20205;-60
2023/01/29 10:24:25;;;;;;;14.18;8.40;;;;;;;1.45;68.39;97597.03;2081439;28;20197;-61
2023/01/29 10:25:26;;;;;;;12.20;7.82;;;;;;;1.52;66.64;97600.50;2073288;28;20249;-61
2023/01/29 10:26:30;;;;;;;9.13;6.50;;;;;;;1.11;67.41;97596.78;2074683;28;20284;-61
2023/01/29 10:27:37;;;;;;;10.95;7.25;;;;;;;1.13;68.04;97602.78;2075667;28;20224;-61
2023/01/29 10:31:30;;;;;;;14.32;8.15;;;;;;;0.02;70.48;97617.94;2089869;28;20556;-61
2023/01/29 12:24:24;;;;;;;13.70;8.65;;;;;;;1.36;68.24;97499.13;2093695;28;20552;-64
2023/01/29 12:25:41;;;;;;;13.57;8.73;;;;;;;1.94;66.77;97483.94;2088690;28;20232;-64
2023/01/29 12:27:09;;;;;;;14.73;8.68;;;;;;;1.90;66.42;97476.19;2083539;28;20212;-64
2023/01/29 12:28:33;;;;;;;17.73;9.73;;;;;;;2.39;65.38;97478.88;2085069;28;20196;-64
2023/01/29 12:29:54;;;;;;;16.80;9.23;;;;;;;2.04;65.16;97476.25;2084912;28;20201;-64
2023/01/29 12:31:16;;;;;;;13.20;8.75;;;;;;;1.74;66.08;97477.84;2076973;28;20225;-64
2023/01/29 12:32:39;;;;;;;15.35;9.15;;;;;;;2.37;65.63;97482.31;2076371;28;20189;-64
2023/01/29 12:34:06;;;;;;;14.02;8.40;;;;;;;2.81;64.45;97465.16;2075584;28;20194;-64
2023/01/29 12:35:36;;;;;;;16.70;7.82;;;;;;;3.62;62.65;97478.72;2074754;28;20225;-64
2023/01/29 12:36:52;;;;;;;16.65;9.45;;;;;;;3.70;61.53;97472.66;2076753;28;20198;-65
2023/01/29 12:38:01;;;;;;;14.52;9.60;;;;;;;3.38;61.77;97463.31;2076609;28;20742;-64
2023/01/29 12:39:02;;;;;;;13.73;7.63;;;;;;;3.41;61.63;97486.53;2076962;28;20262;-64
2023/01/29 12:40:11;;;;;;;10.05;7.50;;;;;;;3.63;61.55;97462.34;2074752;28;20661;-64
2023/01/29 12:41:36;;;;;;;14.73;8.85;;;;;;;3.67;61.75;97470.09;2076756;28;20205;-64
2023/01/29 12:42:41;;;;;;;14.30;9.73;;;;;;;3.38;61.92;97465.03;2076543;28;20194;-67
2023/01/29 12:43:49;;;;;;;12.93;8.63;;;;;;;2.70;63.02;97463.41;2074909;28;20197;-66
2023/01/29 12:44:54;;;;;;;16.65;8.10;;;;;;;2.71;63.17;97456.56;2075275;28;20201;-66
2023/01/29 12:45:58;;;;;;;13.85;8.95;;;;;;;3.03;62.34;97447.91;2074412;28;20261;-66
2023/01/29 12:47:05;;;;;;;14.23;8.70;;;;;;;3.07;62.04;97452.19;2074592;28;20252;-66
2023/01/29 13:09:06;;;;;;;9.05;7.00;;;;;;;2.67;66.28;97436.78;2091001;28;20669;-64
2023/01/29 13:11:26;;;;;;;17.13;8.80;;;;;;;2.76;64.55;97426.44;2088843;28;20553;-64
2023/01/29 13:12:29;;;;;;;12.98;9.02;;;;;;;2.83;63.44;97424.72;2080079;28;20213;-64
2023/01/29 13:13:41;;;;;;;14.75;8.50;;;;;;;2.83;63.18;97430.75;2081874;28;20523;-64
2023/01/29 13:14:48;;;;;;;13.75;9.18;;;;;;;3.48;61.98;97428.00;2080387;28;20201;-64
2023/01/29 13:15:51;;;;;;;11.60;8.55;;;;;;;3.89;61.85;97431.25;2081142;28;20248;-64
2023/01/29 13:17:13;;;;;;;12.90;8.13;;;;;;;3.66;62.13;97429.63;2082703;28;20200;-64
2023/01/29 13:18:29;;;;;;;13.98;9.30;;;;;;;2.73;63.82;97423.84;2085579;28;20236;-64
2023/01/29 13:19:37;;;;;;;18.67;8.80;;;;;;;2.36;65.09;97411.88;2082451;28;20203;-64
2023/01/29 13:28:29;;;;;;;20.27;9.68;;;;;;;1.59;66.96;97419.47;2111643;27;20564;-63
2023/01/29 13:29:32;;;;;;;24.45;11.57;;;;;;;1.88;66.77;97410.94;2107956;28;20202;-63
2023/01/29 14:25:58;;;;;;;7.70;6.10;;;;;;;1.86;67.71;97392.06;2073045;28;20590;-59
2023/01/29 14:27:02;;;;;;;8.82;5.65;;;;;;;2.15;66.62;97397.25;2068284;28;20194;-60
2023/01/29 14:28:12;;;;;;;11.13;6.05;;;;;;;2.67;66.10;97413.56;2066389;28;20202;-59
2023/01/29 14:42:56;;;;;;;27.58;13.98;;;;;;;1.85;68.98;97414.34;2090494;28;20584;-60
2023/01/29 14:44:35;;;;;;;9.55;5.70;;;;;;;2.00;68.54;97412.69;2085599;28;20261;-61
2023/01/29 14:45:40;;;;;;;14.20;7.32;;;;;;;1.96;67.65;97410.09;2080776;28;20225;-62
2023/01/29 14:46:43;;;;;;;9.88;6.20;;;;;;;1.96;67.58;97416.97;2077288;28;20205;-61
2023/01/29 14:47:47;;;;;;;11.35;6.85;;;;;;;1.93;67.44;97417.81;2075970;28;20206;-61
2023/01/29 14:48:49;;;;;;;11.70;7.80;;;;;;;1.73;67.69;97416.94;2079666;28;20684;-61
2023/01/29 14:49:55;;;;;;;7.55;5.95;;;;;;;1.75;67.23;97413.50;2075585;28;20230;-62
2023/01/29 14:51:04;;;;;;;18.75;11.05;;;;;;;2.13;66.66;97406.69;2077238;28;20207;-61
2023/01/29 14:52:10;;;;;;;10.38;6.75;;;;;;;2.32;66.52;97417.84;2078123;28;20246;-61
2023/01/29 14:53:59;;;;;;;9.30;5.75;;;;;;;2.01;66.01;97423.00;2078706;28;20564;-62
2023/01/29 14:55:05;;;;;;;9.75;6.18;;;;;;;1.86;66.44;97410.09;2071383;28;20197;-62
2023/01/29 14:56:23;;;;;;;7.25;5.07;;;;;;;1.62;67.18;97411.72;2073259;28;20263;-61
2023/01/29 14:57:28;;;;;;;9.52;5.70;;;;;;;1.58;67.90;97413.44;2079675;28;20231;-61
2023/01/29 14:58:41;;;;;;;8.57;6.28;;;;;;;1.49;68.04;97412.56;2079112;28;20229;-62
2023/01/29 14:59:53;;;;;;;9.88;6.25;;;;;;;1.91;67.78;97405.81;2081107;28;20284;-61
2023/01/29 15:00:57;;;;;;;8.25;6.10;;;;;;;1.91;67.67;97418.69;2081744;28;20656;-61
2023/01/29 15:02:17;;;;;;;10.20;6.43;;;;;;;1.92;67.06;97407.53;2080438;28;20214;-62
2023/01/29 15:03:25;;;;;;;11.65;6.72;;;;;;;2.11;66.69;97413.56;2077676;28;20203;-62
2023/01/29 15:04:33;;;;;;;8.13;5.85;;;;;;;2.10;66.12;97370.63;2078077;28;20246;-61
2023/01/29 15:05:37;;;;;;;11.27;6.68;;;;;;;2.49;65.33;97411.84;2077516;28;20228;-62
2023/01/29 15:06:46;;;;;;;12.45;6.78;;;;;;;2.64;64.96;97404.13;2075449;28;20203;-61
2023/01/29 15:07:55;;;;;;;12.68;6.30;;;;;;;2.74;64.65;97405.81;2076271;28;20213;-61
2023/01/29 15:09:11;;;;;;;17.42;7.90;;;;;;;2.71;64.50;97402.38;2077624;28;20199;-61
2023/01/29 15:10:17;;;;;;;12.77;7.00;;;;;;;2.55;64.60;97398.94;2076677;28;20205;-61
2023/01/29 15:11:46;;;;;;;13.70;7.03;;;;;;;2.50;64.93;97398.97;2077652;28;20228;-61
2023/01/29 15:13:19;;;;;;;10.23;6.65;;;;;;;2.71;64.27;97410.13;2080884;28;20644;-61
2023/01/29 15:14:30;;;;;;;12.50;6.38;;;;;;;2.84;64.10;97408.38;2085712;28;21046;-61
2023/01/29 15:16:08;;;;;;;11.57;6.35;;;;;;;2.58;64.57;97428.19;2091210;28;20654;-61
2023/01/29 15:17:25;;;;;;;8.57;6.40;;;;;;;2.31;65.43;97423.91;2077961;28;20192;-61
2023/01/29 15:18:41;;;;;;;9.45;5.95;;;;;;;2.17;65.98;97420.44;2076977;28;20202;-62
2023/01/29 15:19:46;;;;;;;7.82;4.63;;;;;;;2.34;65.51;97423.88;2078035;28;20196;-62
2023/01/29 15:20:48;;;;;;;10.43;5.43;;;;;;;2.18;65.92;97417.00;2074419;28;20241;-61
2023/01/29 15:22:02;;;;;;;8.60;5.75;;;;;;;2.67;65.55;97429.91;2077052;28;20217;-61
2023/01/29 15:23:22;;;;;;;9.30;5.93;;;;;;;2.73;64.99;97403.22;2073970;28;20202;-62
2023/01/29 15:24:23;;;;;;;11.15;6.75;;;;;;;2.85;64.47;97416.09;2078684;28;20255;-63
2023/01/29 15:25:28;;;;;;;15.00;8.48;;;;;;;3.08;64.41;97433.28;2076413;28;20216;-62
2023/01/29 15:26:29;;;;;;;10.52;7.00;;;;;;;3.17;63.68;97416.91;2078231;28;20201;-61
2023/01/29 15:27:32;;;;;;;10.85;6.72;;;;;;;3.39;63.31;97425.41;2075211;28;20241;-62
2023/01/29 15:28:34;;;;;;;11.48;6.30;;;;;;;3.36;63.68;97405.63;2076077;28;20197;-61
2023/01/29 15:29:37;;;;;;;10.63;5.85;;;;;;;3.28;63.58;97420.31;2078542;28;20200;-62
2023/01/29 15:30:38;;;;;;;10.40;6.32;;;;;;;2.93;63.71;97408.34;2077135;28;20257;-62
2023/01/29 15:31:41;;;;;;;6.88;4.95;;;;;;;3.07;63.72;97419.53;2079761;28;20197;-62
2023/01/29 15:32:43;;;;;;;8.30;5.85;;;;;;;3.25;63.64;97412.56;2075257;28;20261;-62
2023/01/29 15:33:47;;;;;;;8.88;6.13;;;;;;;2.93;63.37;97391.16;2075566;28;20218;-61
2023/01/29 15:34:49;;;;;;;9.73;7.00;;;;;;;2.72;63.92;97365.41;2078898;28;20201;-61
2023/01/29 15:36:02;;;;;;;10.60;6.93;;;;;;;3.19;63.58;97408.28;2077009;28;20253;-62
2023/01/29 15:37:30;;;;;;;9.52;6.15;;;;;;;3.20;63.54;97410.00;2077328;28;20200;-62
2023/01/29 15:38:32;;;;;;;7.03;4.85;;;;;;;3.03;63.84;97415.22;2078600;28;20363;-62
2023/01/29 15:39:42;;;;;;;8.82;5.38;;;;;;;3.48;63.45;97421.94;2079004;28;20237;-62
2023/01/29 15:40:55;;;;;;;8.10;5.00;;;;;;;3.49;63.10;97410.75;2077001;28;20264;-62
2023/01/29 15:42:20;;;;;;;11.25;7.40;;;;;;;3.49;63.43;97414.22;2080429;28;20234;-62
2023/01/29 15:43:35;;;;;;;10.30;6.45;;;;;;;3.27;63.34;97405.69;2079358;28;20201;-62
2023/01/29 15:44:43;;;;;;;9.07;5.85;;;;;;;3.41;63.11;97418.53;2079269;28;20197;-62
2023/01/29 15:45:46;;;;;;;8.73;5.50;;;;;;;2.74;64.19;97413.56;2078079;28;20225;-62
2023/01/29 15:46:58;;;;;;;7.85;5.90;;;;;;;2.26;65.40;97400.69;2080290;28;20197;-61
2023/01/29 15:48:06;;;;;;;10.80;6.63;;;;;;;2.09;66.85;97412.69;2078858;28;20190;-62
2023/01/29 15:49:15;;;;;;;8.35;5.28;;;;;;;1.73;67.43;97409.19;2078502;28;20190;-62
2023/01/29 15:50:16;;;;;;;7.55;4.90;;;;;;;1.69;68.19;97408.31;2077839;28;20205;-62
